createdAt,value
2022-12-18T00:00:05.787Z,70.79
2022-12-18T00:01:05.683Z,70.89
2022-12-18T00:02:05.763Z,71.09
2022-12-18T00:03:05.815Z,71.09
2022-12-18T00:04:05.835Z,71.09
2022-12-18T00:05:05.721Z,71.19
2022-12-18T00:06:05.636Z,71.89
2022-12-18T00:07:05.740Z,71.50
2022-12-18T00:08:09.110Z,71.00
2022-12-18T00:09:05.646Z,71.09
2022-12-18T00:10:05.664Z,71.53
2022-12-18T00:11:07.076Z,72.03
2022-12-18T00:13:09.800Z,72.13
2022-12-18T00:14:05.574Z,72.30
2022-12-18T00:15:05.582Z,72.09
2022-12-18T00:16:05.620Z,72.30
2022-12-18T00:17:05.611Z,72.30
2022-12-18T00:18:05.486Z,72.30
2022-12-18T00:19:05.492Z,72.30
2022-12-18T00:20:05.520Z,72.19
2022-12-18T00:21:05.523Z,72.69
2022-12-18T00:22:05.535Z,72.69
2022-12-18T00:23:05.553Z,72.60
2022-12-18T00:24:05.449Z,72.50
2022-12-18T00:25:05.457Z,72.36
2022-12-18T00:26:05.457Z,72.46
2022-12-18T00:27:06.565Z,72.36
2022-12-18T00:28:05.453Z,72.16
2022-12-18T00:29:05.913Z,72.06
2022-12-18T00:30:05.393Z,72.56
2022-12-18T00:31:05.524Z,72.00
2022-12-18T00:32:05.481Z,72.50
2022-12-18T00:33:05.399Z,72.43
2022-12-18T00:34:05.403Z,73.43
2022-12-18T00:35:05.411Z,73.33
2022-12-18T00:36:05.326Z,73.33
2022-12-18T00:37:05.333Z,73.73
2022-12-18T00:38:05.339Z,73.36
2022-12-18T00:39:05.331Z,73.57
2022-12-18T00:40:05.343Z,73.77
2022-12-18T00:41:05.368Z,73.36
2022-12-18T00:42:05.255Z,73.97
2022-12-18T00:43:05.257Z,74.07
2022-12-18T00:44:05.273Z,74.07
2022-12-18T00:45:10.624Z,74.07
2022-12-18T00:46:05.315Z,73.86
2022-12-18T00:47:05.205Z,73.67
2022-12-18T00:48:05.190Z,73.47
2022-12-18T00:49:05.204Z,73.57
2022-12-18T00:50:05.234Z,73.27
2022-12-18T00:51:05.113Z,73.27
2022-12-18T00:52:05.116Z,72.86
2022-12-18T00:53:05.124Z,72.86
2022-12-18T00:54:05.130Z,72.47
2022-12-18T00:55:06.555Z,72.77
2022-12-18T00:56:05.146Z,72.97
2022-12-18T00:57:05.049Z,73.16
2022-12-18T00:58:05.053Z,73.16
2022-12-18T00:59:05.058Z,73.57
2022-12-18T01:00:04.994Z,73.27
2022-12-18T01:01:05.005Z,73.16
2022-12-18T01:02:05.163Z,72.83
2022-12-18T01:03:04.995Z,72.63
2022-12-18T01:04:04.942Z,72.53
2022-12-18T01:05:04.999Z,72.43
2022-12-18T01:06:05.001Z,72.53
2022-12-18T01:07:04.911Z,72.43
2022-12-18T01:08:04.919Z,72.23
2022-12-18T01:09:04.956Z,72.33
2022-12-18T01:10:04.879Z,72.33
2022-12-18T01:11:05.498Z,72.13
2022-12-18T01:12:04.895Z,71.43
2022-12-18T01:13:04.841Z,71.93
2022-12-18T01:14:04.854Z,71.93
2022-12-18T01:15:04.808Z,71.73
2022-12-18T01:16:04.929Z,71.63
2022-12-18T01:17:04.835Z,71.83
2022-12-18T01:18:04.837Z,71.73
2022-12-18T01:19:04.738Z,72.03
2022-12-18T01:20:04.749Z,72.13
2022-12-18T01:21:04.819Z,72.16
2022-12-18T01:22:04.761Z,72.06
2022-12-18T01:23:04.738Z,72.36
2022-12-18T01:24:04.830Z,72.16
2022-12-18T01:25:04.682Z,72.36
2022-12-18T01:26:04.787Z,72.33
2022-12-18T01:27:04.757Z,72.33
2022-12-18T01:28:04.698Z,72.13
2022-12-18T01:29:04.661Z,72.03
2022-12-18T01:30:04.777Z,72.03
2022-12-18T01:31:04.674Z,72.13
2022-12-18T01:32:04.714Z,72.33
2022-12-18T01:33:04.626Z,72.03
2022-12-18T01:34:04.698Z,72.33
2022-12-18T01:35:04.669Z,72.53
2022-12-18T01:36:04.615Z,72.23
2022-12-18T01:37:04.576Z,72.63
2022-12-18T01:38:04.864Z,72.77
2022-12-18T01:39:04.645Z,72.86
2022-12-18T01:40:04.846Z,73.03
2022-12-18T01:41:04.543Z,72.83
2022-12-18T01:42:04.546Z,72.73
2022-12-18T01:43:04.516Z,72.93
2022-12-18T01:44:04.518Z,73.07
2022-12-18T01:45:04.468Z,73.16
2022-12-18T01:46:04.527Z,73.47
2022-12-18T01:47:04.440Z,73.77
2022-12-18T01:48:04.453Z,73.57
2022-12-18T01:49:04.484Z,73.77
2022-12-18T01:50:04.512Z,73.77
2022-12-18T01:51:04.513Z,73.77
2022-12-18T01:52:04.479Z,73.97
2022-12-18T01:53:04.353Z,74.07
2022-12-18T01:54:04.382Z,74.17
2022-12-18T01:55:04.365Z,73.67
2022-12-18T01:56:04.374Z,73.67
2022-12-18T01:57:04.355Z,74.07
2022-12-18T01:58:04.560Z,73.97
2022-12-18T01:59:04.322Z,74.07
2022-12-18T02:00:04.317Z,74.07
2022-12-18T02:01:04.364Z,74.17
2022-12-18T02:02:04.491Z,73.97
2022-12-18T02:03:04.362Z,73.97
2022-12-18T02:04:04.352Z,73.97
2022-12-18T02:05:04.250Z,73.86
2022-12-18T02:06:04.306Z,73.97
2022-12-18T02:07:04.264Z,74.17
2022-12-18T02:08:04.216Z,73.86
2022-12-18T02:09:04.327Z,73.86
2022-12-18T02:10:04.236Z,73.97
2022-12-18T02:11:04.184Z,73.97
2022-12-18T02:12:04.243Z,73.77
2022-12-18T02:13:04.203Z,74.07
2022-12-18T02:14:04.211Z,73.80
2022-12-18T02:15:04.160Z,74.30
2022-12-18T02:16:04.125Z,74.40
2022-12-18T02:17:04.161Z,74.30
2022-12-18T02:18:04.136Z,74.40
2022-12-18T02:19:04.145Z,74.60
2022-12-18T02:20:04.146Z,74.71
2022-12-18T02:21:04.096Z,74.60
2022-12-18T02:22:04.126Z,74.60
2022-12-18T02:23:04.066Z,74.90
2022-12-18T02:24:04.124Z,74.60
2022-12-18T02:25:04.090Z,74.60
2022-12-18T02:26:04.052Z,74.60
2022-12-18T02:27:04.039Z,74.80
2022-12-18T02:28:04.003Z,74.80
2022-12-18T02:29:04.012Z,74.80
2022-12-18T02:30:04.118Z,74.71
2022-12-18T02:31:04.072Z,75.01
2022-12-18T02:32:03.965Z,74.80
2022-12-18T02:33:04.038Z,74.80
2022-12-18T02:34:03.983Z,75.10
2022-12-18T02:35:03.989Z,75.21
2022-12-18T02:36:03.944Z,74.90
2022-12-18T02:37:03.956Z,74.60
2022-12-18T02:38:03.973Z,74.40
2022-12-18T02:39:03.913Z,74.30
2022-12-18T02:40:03.871Z,74.60
2022-12-18T02:41:03.885Z,74.71
2022-12-18T02:42:03.989Z,75.10
2022-12-18T02:43:03.835Z,75.21
2022-12-18T02:44:03.902Z,75.01
2022-12-18T02:45:03.812Z,75.21
2022-12-18T02:46:03.937Z,74.90
2022-12-18T02:47:03.894Z,74.60
2022-12-18T02:48:04.030Z,74.47
2022-12-18T02:49:03.783Z,74.57
2022-12-18T02:50:03.800Z,74.37
2022-12-18T02:51:03.846Z,74.37
2022-12-18T02:52:03.749Z,74.57
2022-12-18T02:53:03.763Z,74.37
2022-12-18T02:54:03.762Z,74.37
2022-12-18T02:55:03.819Z,74.47
2022-12-18T02:56:03.942Z,74.47
2022-12-18T02:57:03.853Z,74.37
2022-12-18T02:58:03.683Z,74.47
2022-12-18T02:59:03.696Z,74.27
2022-12-18T03:00:03.701Z,74.07
2022-12-18T03:01:03.737Z,74.30
2022-12-18T03:02:04.035Z,74.30
2022-12-18T03:03:03.801Z,74.60
2022-12-18T03:04:03.698Z,74.60
2022-12-18T03:05:03.627Z,74.80
2022-12-18T03:06:03.633Z,74.71
2022-12-18T03:07:03.613Z,75.21
2022-12-18T03:08:03.615Z,74.80
2022-12-18T03:09:03.555Z,75.01
2022-12-18T03:10:03.626Z,75.01
2022-12-18T03:11:03.637Z,74.90
2022-12-18T03:12:03.647Z,75.10
2022-12-18T03:13:04.179Z,75.10
2022-12-18T03:14:03.589Z,74.60
2022-12-18T03:15:03.494Z,74.71
2022-12-18T03:16:04.118Z,75.04
2022-12-18T03:17:03.557Z,74.94
2022-12-18T03:18:03.516Z,75.04
2022-12-18T03:19:03.515Z,74.94
2022-12-18T03:20:03.523Z,74.90
2022-12-18T03:21:03.525Z,74.90
2022-12-18T03:22:04.475Z,74.94
2022-12-18T03:23:03.447Z,74.71
2022-12-18T03:24:03.556Z,74.80
2022-12-18T03:25:03.460Z,74.71
2022-12-18T03:26:07.488Z,74.40
2022-12-18T03:27:03.468Z,74.30
2022-12-18T03:28:03.474Z,73.80
2022-12-18T03:29:04.020Z,74.04
2022-12-18T03:30:04.208Z,74.24
2022-12-18T03:31:03.487Z,74.34
2022-12-18T03:32:03.400Z,74.74
2022-12-18T03:33:06.066Z,74.37
2022-12-18T03:34:03.407Z,74.77
2022-12-18T03:35:03.319Z,74.77
2022-12-18T03:36:03.257Z,74.88
2022-12-18T03:37:03.295Z,74.98
2022-12-18T03:38:03.270Z,74.98
2022-12-18T03:39:03.279Z,74.88
2022-12-18T03:40:03.184Z,74.94
2022-12-18T03:41:03.259Z,74.74
2022-12-18T03:42:03.263Z,74.68
2022-12-18T03:43:03.209Z,75.08
2022-12-18T03:44:03.475Z,74.98
2022-12-18T03:45:03.278Z,75.18
2022-12-18T03:46:03.267Z,74.88
2022-12-18T03:47:03.139Z,74.98
2022-12-18T03:48:03.211Z,75.27
2022-12-18T03:49:03.214Z,75.27
2022-12-18T03:50:06.145Z,75.18
2022-12-18T03:51:03.160Z,75.48
2022-12-18T03:52:03.129Z,75.38
2022-12-18T03:53:03.066Z,75.38
2022-12-18T03:54:03.076Z,75.38
2022-12-18T03:55:03.144Z,75.38
2022-12-18T03:56:03.400Z,75.14
2022-12-18T03:57:03.163Z,75.04
2022-12-18T03:58:02.996Z,74.64
2022-12-18T03:59:03.073Z,74.64
2022-12-18T04:00:03.204Z,74.64
2022-12-18T04:01:03.092Z,74.64
2022-12-18T04:02:03.615Z,74.54
2022-12-18T04:03:03.005Z,74.64
2022-12-18T04:04:03.129Z,74.54
2022-12-18T04:05:03.041Z,74.44
2022-12-18T04:06:03.115Z,74.54
2022-12-18T04:07:02.963Z,74.54
2022-12-18T04:08:02.960Z,74.54
2022-12-18T04:09:02.863Z,74.44
2022-12-18T04:10:02.955Z,74.64
2022-12-18T04:11:02.878Z,74.54
2022-12-18T04:12:02.945Z,74.54
2022-12-18T04:13:02.949Z,74.34
2022-12-18T04:14:07.024Z,74.54
2022-12-18T04:15:02.870Z,74.64
2022-12-18T04:16:02.903Z,74.44
2022-12-18T04:17:02.820Z,74.34
2022-12-18T04:18:03.001Z,74.34
2022-12-18T04:19:02.828Z,74.54
2022-12-18T04:20:02.902Z,74.64
2022-12-18T04:21:02.748Z,74.64
2022-12-18T04:22:02.831Z,74.44
2022-12-18T04:23:02.756Z,74.54
2022-12-18T04:24:02.834Z,74.44
2022-12-18T04:25:02.853Z,74.44
2022-12-18T04:26:02.750Z,74.54
2022-12-18T04:27:03.054Z,74.74
2022-12-18T04:28:02.754Z,74.74
2022-12-18T04:29:02.772Z,75.24
2022-12-18T04:30:02.778Z,75.45
2022-12-18T04:31:03.001Z,75.58
2022-12-18T04:32:02.662Z,75.58
2022-12-18T04:33:02.898Z,75.68
2022-12-18T04:34:02.706Z,75.27
2022-12-18T04:35:02.715Z,75.68
2022-12-18T04:36:02.708Z,75.88
2022-12-18T04:37:02.725Z,75.88
2022-12-18T04:38:02.629Z,76.08
2022-12-18T04:39:02.548Z,75.88
2022-12-18T04:40:02.596Z,75.88
2022-12-18T04:41:02.604Z,75.98
2022-12-18T04:42:02.585Z,76.18
2022-12-18T04:43:02.635Z,76.18
2022-12-18T04:44:02.569Z,75.78
2022-12-18T04:45:02.508Z,75.88
2022-12-18T04:46:02.566Z,75.98
2022-12-18T04:47:02.596Z,76.08
2022-12-18T04:48:02.523Z,76.08
2022-12-18T04:49:02.593Z,75.78
2022-12-18T04:50:02.431Z,76.18
2022-12-18T04:51:02.726Z,76.08
2022-12-18T04:52:02.508Z,76.38
2022-12-18T04:53:02.459Z,76.18
2022-12-18T04:54:02.462Z,75.95
2022-12-18T04:55:02.466Z,75.74
2022-12-18T04:56:02.444Z,76.08
2022-12-18T04:57:03.004Z,76.18
2022-12-18T04:58:02.491Z,76.38
2022-12-18T04:59:02.390Z,76.92
2022-12-18T05:00:02.400Z,77.32
2022-12-18T05:01:02.405Z,77.32
2022-12-18T05:02:02.448Z,77.52
2022-12-18T05:03:02.434Z,77.42
2022-12-18T05:04:02.395Z,76.92
2022-12-18T05:05:02.338Z,77.02
2022-12-18T05:06:02.443Z,76.98
2022-12-18T05:07:02.408Z,76.89
2022-12-18T05:08:02.318Z,76.78
2022-12-18T05:09:02.368Z,76.68
2022-12-18T05:10:02.269Z,76.58
2022-12-18T05:11:02.344Z,76.48
2022-12-18T05:12:02.245Z,76.48
2022-12-18T05:13:02.256Z,76.48
2022-12-18T05:14:02.255Z,76.58
2022-12-18T05:15:02.199Z,76.58
2022-12-18T05:16:02.308Z,76.48
2022-12-18T05:17:02.278Z,76.38
2022-12-18T05:18:02.202Z,76.34
2022-12-18T05:19:02.175Z,76.34
2022-12-18T05:20:02.144Z,76.34
2022-12-18T05:21:02.232Z,76.15
2022-12-18T05:22:02.149Z,75.84
2022-12-18T05:23:02.147Z,75.95
2022-12-18T05:24:02.124Z,75.64
2022-12-18T05:25:02.121Z,75.51
2022-12-18T05:26:02.072Z,75.31
2022-12-18T05:27:02.142Z,75.31
2022-12-18T05:28:02.079Z,75.01
2022-12-18T05:29:02.093Z,75.14
2022-12-18T05:30:02.770Z,75.45
2022-12-18T05:31:02.093Z,75.54
2022-12-18T05:32:02.080Z,75.74
2022-12-18T05:33:02.007Z,75.84
2022-12-18T05:34:02.091Z,75.95
2022-12-18T05:35:02.093Z,75.95
2022-12-18T05:36:01.989Z,75.95
2022-12-18T05:37:02.010Z,75.64
2022-12-18T05:38:02.012Z,75.84
2022-12-18T05:39:02.011Z,75.74
2022-12-18T05:40:02.034Z,75.54
2022-12-18T05:41:02.033Z,75.24
2022-12-18T05:42:01.934Z,75.54
2022-12-18T05:43:01.940Z,75.34
2022-12-18T05:44:01.952Z,75.34
2022-12-18T05:45:01.965Z,75.34
2022-12-18T05:46:01.963Z,75.45
2022-12-18T05:47:02.027Z,75.54
2022-12-18T05:48:01.875Z,75.64
2022-12-18T05:49:01.891Z,75.54
2022-12-18T05:50:01.902Z,75.64
2022-12-18T05:51:01.896Z,75.64
2022-12-18T05:52:01.899Z,75.74
2022-12-18T05:53:01.932Z,75.74
2022-12-18T05:54:01.822Z,75.64
2022-12-18T05:55:01.812Z,75.54
2022-12-18T05:56:01.932Z,75.18
2022-12-18T05:57:01.838Z,75.88
2022-12-18T05:58:01.832Z,75.88
2022-12-18T05:59:01.857Z,76.28
2022-12-18T06:00:01.762Z,76.38
2022-12-18T06:01:01.750Z,76.08
2022-12-18T06:02:01.894Z,76.28
2022-12-18T06:03:01.887Z,76.18
2022-12-18T06:04:01.887Z,75.98
2022-12-18T06:05:01.676Z,75.98
2022-12-18T06:06:01.809Z,76.38
2022-12-18T06:07:01.695Z,76.58
2022-12-18T06:08:01.618Z,76.48
2022-12-18T06:09:01.706Z,76.38
2022-12-18T06:10:01.712Z,76.28
2022-12-18T06:11:01.716Z,76.08
2022-12-18T06:12:01.730Z,75.95
2022-12-18T06:13:01.637Z,75.84
2022-12-18T06:14:01.645Z,75.84
2022-12-18T06:15:01.653Z,75.64
2022-12-18T06:16:01.745Z,75.74
2022-12-18T06:17:01.560Z,75.74
2022-12-18T06:18:01.669Z,75.54
2022-12-18T06:19:01.577Z,75.45
2022-12-18T06:20:01.585Z,75.45
2022-12-18T06:21:01.591Z,75.14
2022-12-18T06:22:02.717Z,75.04
2022-12-18T06:23:01.504Z,75.04
2022-12-18T06:24:01.508Z,75.27
2022-12-18T06:25:01.487Z,75.27
2022-12-18T06:26:01.532Z,74.91
2022-12-18T06:27:01.434Z,75.92
2022-12-18T06:28:01.445Z,76.02
2022-12-18T06:29:01.412Z,76.12
2022-12-18T06:30:01.448Z,76.12
2022-12-18T06:31:01.429Z,76.32
2022-12-18T06:32:01.511Z,76.21
2022-12-18T06:33:01.667Z,76.12
2022-12-18T06:34:01.477Z,76.32
2022-12-18T06:35:01.321Z,76.21
2022-12-18T06:36:01.396Z,76.12
2022-12-18T06:37:01.366Z,76.42
2022-12-18T06:38:01.615Z,76.21
2022-12-18T06:39:01.277Z,76.56
2022-12-18T06:40:01.425Z,76.65
2022-12-18T06:41:01.295Z,76.32
2022-12-18T06:42:01.295Z,76.42
2022-12-18T06:43:01.308Z,76.42
2022-12-18T06:44:01.276Z,76.21
2022-12-18T06:45:01.354Z,75.92
2022-12-18T06:46:01.445Z,76.12
2022-12-18T06:47:01.202Z,76.21
2022-12-18T06:48:01.200Z,76.42
2022-12-18T06:49:01.200Z,76.72
2022-12-18T06:50:01.206Z,76.82
2022-12-18T06:51:01.280Z,76.72
2022-12-18T06:52:01.191Z,76.42
2022-12-18T06:53:01.174Z,76.35
2022-12-18T06:54:01.167Z,76.76
2022-12-18T06:55:01.142Z,76.96
2022-12-18T06:56:05.091Z,76.76
2022-12-18T06:57:01.121Z,77.06
2022-12-18T06:58:01.100Z,77.06
2022-12-18T06:59:01.070Z,77.16
2022-12-18T07:00:01.117Z,76.96
2022-12-18T07:01:01.156Z,77.16
2022-12-18T07:02:01.253Z,77.46
2022-12-18T07:03:01.216Z,77.76
2022-12-18T07:04:00.998Z,77.76
2022-12-18T07:05:04.756Z,77.76
2022-12-18T07:06:01.217Z,77.56
2022-12-18T07:07:01.024Z,77.36
2022-12-18T07:08:01.049Z,77.36
2022-12-18T07:09:01.028Z,77.66
2022-12-18T07:10:00.934Z,78.06
2022-12-18T07:11:00.983Z,78.06
2022-12-18T07:12:00.995Z,78.06
2022-12-18T07:13:01.002Z,77.86
2022-12-18T07:14:00.983Z,77.56
2022-12-18T07:15:00.993Z,77.26
2022-12-18T07:16:01.009Z,77.56
2022-12-18T07:17:00.931Z,77.46
2022-12-18T07:18:00.904Z,77.46
2022-12-18T07:19:00.891Z,77.66
2022-12-18T07:20:00.895Z,77.56
2022-12-18T07:21:00.879Z,77.46
2022-12-18T07:22:01.172Z,77.66
2022-12-18T07:23:00.815Z,77.32
2022-12-18T07:24:00.835Z,76.72
2022-12-18T07:25:00.842Z,76.52
2022-12-18T07:26:00.889Z,76.82
2022-12-18T07:27:00.873Z,76.72
2022-12-18T07:28:00.798Z,76.82
2022-12-18T07:29:00.779Z,77.02
2022-12-18T07:30:00.760Z,77.02
2022-12-18T07:31:00.823Z,77.02
2022-12-18T07:32:00.850Z,76.92
2022-12-18T07:33:01.553Z,77.02
2022-12-18T07:34:00.747Z,77.02
2022-12-18T07:35:00.754Z,76.92
2022-12-18T07:36:00.759Z,77.02
2022-12-18T07:37:00.706Z,76.82
2022-12-18T07:38:00.668Z,76.72
2022-12-18T07:39:00.720Z,76.92
2022-12-18T07:40:00.629Z,76.72
2022-12-18T07:41:00.630Z,76.12
2022-12-18T07:42:00.586Z,76.45
2022-12-18T07:43:00.599Z,76.65
2022-12-18T07:44:01.079Z,77.16
2022-12-18T07:45:00.607Z,77.26
2022-12-18T07:46:00.683Z,76.96
2022-12-18T07:47:00.581Z,77.06
2022-12-18T07:48:00.630Z,76.96
2022-12-18T07:49:00.583Z,76.96
2022-12-18T07:50:00.601Z,76.82
2022-12-18T07:51:00.547Z,76.72
2022-12-18T07:52:00.555Z,76.52
2022-12-18T07:53:00.570Z,76.21
2022-12-18T07:54:00.576Z,76.21
2022-12-18T07:55:00.531Z,76.12
2022-12-18T07:56:26.119Z,76.21
2022-12-18T07:57:00.492Z,76.32
2022-12-18T07:58:01.264Z,76.21
2022-12-18T07:59:00.759Z,76.02
2022-12-18T08:00:00.465Z,76.02
2022-12-18T08:01:00.608Z,76.12
2022-12-18T08:02:00.797Z,75.92
2022-12-18T08:03:00.582Z,76.12
2022-12-18T08:04:00.435Z,76.12
2022-12-18T08:05:00.498Z,76.02
2022-12-18T08:06:00.347Z,76.21
2022-12-18T08:07:00.507Z,76.21
2022-12-18T08:08:00.358Z,76.32
2022-12-18T08:09:00.368Z,76.42
2022-12-18T08:10:00.383Z,76.12
2022-12-18T08:11:00.635Z,75.92
2022-12-18T08:12:00.285Z,75.62
2022-12-18T08:13:04.815Z,75.82
2022-12-18T08:14:00.302Z,75.92
2022-12-18T08:15:00.394Z,76.02
2022-12-18T08:16:00.370Z,75.82
2022-12-18T08:17:00.382Z,75.82
2022-12-18T08:18:00.274Z,76.02
2022-12-18T08:19:00.288Z,75.62
2022-12-18T08:20:00.286Z,76.02
2022-12-18T08:21:00.296Z,76.21
2022-12-18T08:22:00.201Z,76.86
2022-12-18T08:23:00.209Z,76.86
2022-12-18T08:24:00.212Z,76.65
2022-12-18T08:25:00.226Z,76.65
2022-12-18T08:26:00.230Z,76.62
2022-12-18T08:27:28.243Z,76.52
2022-12-18T08:28:00.138Z,76.52
2022-12-18T08:29:00.147Z,76.62
2022-12-18T08:30:00.177Z,76.52
2022-12-18T08:31:00.199Z,76.12
2022-12-18T08:32:00.324Z,76.15
2022-12-18T08:33:00.175Z,76.15
2022-12-18T08:34:00.129Z,76.25
2022-12-18T08:35:00.092Z,76.25
2022-12-18T08:36:00.132Z,75.85
2022-12-18T08:37:00.091Z,76.05
2022-12-18T08:38:00.613Z,76.35
2022-12-18T08:39:00.006Z,76.45
2022-12-18T08:40:00.117Z,76.05
2022-12-18T08:41:00.018Z,75.55
2022-12-18T08:42:00.855Z,75.05
2022-12-18T08:43:00.342Z,74.71
2022-12-18T08:44:00.054Z,74.31
2022-12-18T08:44:59.989Z,74.21
2022-12-18T08:46:00.025Z,74.31
2022-12-18T08:46:59.895Z,74.31
2022-12-18T08:48:00.094Z,74.31
2022-12-18T08:48:59.980Z,73.71
2022-12-18T08:49:59.922Z,73.91
2022-12-18T08:51:00.020Z,74.11
2022-12-18T08:51:59.896Z,73.71
2022-12-18T08:52:59.899Z,74.01
2022-12-18T08:54:00.018Z,73.71
2022-12-18T08:54:59.912Z,73.50
2022-12-18T08:55:59.942Z,73.81
2022-12-18T08:56:59.952Z,73.61
2022-12-18T08:57:59.847Z,73.61
2022-12-18T08:59:00.777Z,73.41
2022-12-18T08:59:59.844Z,73.10
2022-12-18T09:00:59.900Z,72.77
2022-12-18T09:01:59.948Z,72.87
2022-12-18T09:02:59.929Z,73.07
2022-12-18T09:03:59.777Z,73.07
2022-12-18T09:04:59.780Z,72.56
2022-12-18T09:05:59.793Z,72.87
2022-12-18T09:06:59.718Z,72.47
2022-12-18T09:08:00.612Z,72.37
2022-12-18T09:08:59.707Z,72.06
2022-12-18T09:09:59.683Z,72.47
2022-12-18T09:10:59.717Z,72.67
2022-12-18T09:11:59.743Z,72.97
2022-12-18T09:12:59.750Z,72.47
2022-12-18T09:13:59.753Z,72.47
2022-12-18T09:14:59.767Z,72.56
2022-12-18T09:15:59.646Z,72.37
2022-12-18T09:16:59.786Z,72.77
2022-12-18T09:17:59.662Z,72.67
2022-12-18T09:19:00.686Z,72.94
2022-12-18T09:19:59.571Z,72.53
2022-12-18T09:20:59.580Z,72.24
2022-12-18T09:21:59.556Z,72.24
2022-12-18T09:22:59.591Z,72.33
2022-12-18T09:23:59.613Z,71.73
2022-12-18T09:24:59.584Z,71.63
2022-12-18T09:25:59.490Z,71.63
2022-12-18T09:26:59.516Z,71.83
2022-12-18T09:27:59.526Z,71.83
2022-12-18T09:28:59.444Z,72.24
2022-12-18T09:29:59.557Z,72.03
2022-12-18T09:30:59.722Z,72.03
2022-12-18T09:31:59.473Z,72.03
2022-12-18T09:32:59.426Z,72.13
2022-12-18T09:33:59.440Z,72.43
2022-12-18T09:34:59.547Z,72.43
2022-12-18T09:35:59.660Z,72.74
2022-12-18T09:36:59.565Z,71.83
2022-12-18T09:37:59.328Z,71.93
2022-12-18T09:39:01.661Z,72.03
2022-12-18T09:39:59.376Z,72.03
2022-12-18T09:40:59.412Z,71.23
2022-12-18T09:41:59.604Z,71.43
2022-12-18T09:42:59.298Z,71.63
2022-12-18T09:43:59.264Z,71.53
2022-12-18T09:44:59.398Z,71.30
2022-12-18T09:45:59.305Z,71.59
2022-12-18T09:46:59.286Z,71.90
2022-12-18T09:47:59.336Z,71.09
2022-12-18T09:48:59.236Z,71.23
2022-12-18T09:49:59.205Z,71.50
2022-12-18T09:50:59.243Z,70.83
2022-12-18T09:51:59.224Z,71.13
2022-12-18T09:52:59.261Z,71.83
2022-12-18T09:53:59.266Z,71.73
2022-12-18T09:54:59.206Z,71.50
2022-12-18T09:55:59.211Z,71.59
2022-12-18T09:56:59.222Z,70.39
2022-12-18T09:57:59.203Z,70.89
2022-12-18T09:58:59.157Z,70.50
2022-12-18T09:59:59.115Z,70.50
2022-12-18T10:00:59.115Z,70.39
2022-12-18T10:01:59.235Z,69.69
2022-12-18T10:02:59.265Z,69.92
2022-12-18T10:03:59.760Z,70.23
2022-12-18T10:04:59.149Z,70.23
2022-12-18T10:05:59.057Z,70.43
2022-12-18T10:07:00.370Z,70.63
2022-12-18T10:07:59.062Z,71.03
2022-12-18T10:08:59.068Z,70.83
2022-12-18T10:09:59.025Z,70.73
2022-12-18T10:10:59.028Z,70.73
2022-12-18T10:11:59.036Z,70.09
2022-12-18T10:13:04.234Z,69.99
2022-12-18T10:13:59.092Z,70.29
2022-12-18T10:14:59.007Z,69.79
2022-12-18T10:15:59.047Z,69.39
2022-12-18T10:16:58.970Z,69.49
2022-12-18T10:17:59.031Z,69.79
2022-12-18T10:18:58.931Z,69.59
2022-12-18T10:19:58.937Z,69.89
2022-12-18T10:20:58.948Z,69.09
2022-12-18T10:21:58.951Z,68.89
2022-12-18T10:22:58.959Z,68.89
2022-12-18T10:23:58.871Z,68.79
2022-12-18T10:24:58.870Z,68.99
2022-12-18T10:25:58.881Z,68.65
2022-12-18T10:26:58.880Z,68.65
2022-12-18T10:27:58.842Z,69.06
2022-12-18T10:29:03.801Z,68.85
2022-12-18T10:29:58.934Z,69.62
2022-12-18T10:30:58.954Z,69.02
2022-12-18T10:31:58.821Z,68.42
2022-12-18T10:32:58.762Z,68.42
2022-12-18T10:33:58.773Z,67.92
2022-12-18T10:35:00.630Z,68.12
2022-12-18T10:35:58.746Z,67.92
2022-12-18T10:36:58.796Z,67.39
2022-12-18T10:37:58.808Z,67.19
2022-12-18T10:38:58.711Z,66.99
2022-12-18T10:39:58.709Z,66.78
2022-12-18T10:40:58.673Z,66.89
2022-12-18T10:41:58.730Z,66.78
2022-12-18T10:42:58.692Z,67.19
2022-12-18T10:43:58.629Z,66.99
2022-12-18T10:44:58.634Z,67.29
2022-12-18T10:45:58.718Z,67.09
2022-12-18T10:46:58.720Z,66.99
2022-12-18T10:47:58.614Z,66.49
2022-12-18T10:48:58.558Z,67.49
2022-12-18T10:49:58.581Z,66.55
2022-12-18T10:51:14.137Z,66.36
2022-12-18T10:51:58.685Z,66.55
2022-12-18T10:52:58.600Z,66.78
2022-12-18T10:53:58.555Z,66.99
2022-12-18T10:54:58.598Z,66.78
2022-12-18T10:55:58.517Z,66.99
2022-12-18T10:56:58.518Z,67.69
2022-12-18T10:57:58.569Z,67.39
2022-12-18T10:58:58.525Z,67.39
2022-12-18T10:59:58.479Z,66.89
2022-12-18T11:00:58.488Z,67.29
2022-12-18T11:01:58.632Z,67.79
2022-12-18T11:02:58.964Z,67.29
2022-12-18T11:04:02.063Z,67.69
2022-12-18T11:04:59.043Z,67.59
2022-12-18T11:05:58.440Z,67.29
2022-12-18T11:06:58.728Z,67.59
2022-12-18T11:07:58.382Z,67.59
2022-12-18T11:08:58.457Z,67.49
2022-12-18T11:09:58.649Z,67.59
2022-12-18T11:10:58.343Z,67.49
2022-12-18T11:11:59.336Z,67.49
2022-12-18T11:12:58.357Z,67.29
2022-12-18T11:13:59.047Z,67.09
2022-12-18T11:14:58.371Z,67.05
2022-12-18T11:15:58.533Z,67.16
2022-12-18T11:17:24.185Z,67.36
2022-12-18T11:17:58.380Z,67.05
2022-12-18T11:18:58.297Z,66.66
2022-12-18T11:19:58.305Z,67.16
2022-12-18T11:20:58.981Z,66.96
2022-12-18T11:21:58.245Z,67.19
2022-12-18T11:22:58.251Z,67.59
2022-12-18T11:23:58.193Z,67.99
2022-12-18T11:25:30.290Z,68.19
2022-12-18T11:25:58.372Z,68.09
2022-12-18T11:26:59.948Z,68.29
2022-12-18T11:27:58.237Z,68.05
2022-12-18T11:28:58.201Z,68.16
2022-12-18T11:29:58.146Z,67.96
2022-12-18T11:30:58.249Z,67.66
2022-12-18T11:31:58.218Z,67.86
2022-12-18T11:32:58.116Z,67.86
2022-12-18T11:34:27.417Z,67.86
2022-12-18T11:34:59.255Z,67.46
2022-12-18T11:35:58.135Z,67.96
2022-12-18T11:36:58.437Z,67.76
2022-12-18T11:37:58.161Z,68.16
2022-12-18T11:38:58.067Z,67.63
2022-12-18T11:39:58.057Z,67.22
2022-12-18T11:40:58.067Z,67.19
2022-12-18T11:41:58.071Z,65.83
2022-12-18T11:42:58.076Z,67.29
2022-12-18T11:43:57.982Z,66.39
2022-12-18T11:44:57.991Z,65.92
2022-12-18T11:45:57.994Z,66.82
2022-12-18T11:46:58.075Z,66.82
2022-12-18T11:47:58.025Z,66.82
2022-12-18T11:48:58.018Z,66.49
2022-12-18T11:49:57.928Z,66.49
2022-12-18T11:50:57.931Z,66.36
2022-12-18T11:51:57.930Z,64.86
2022-12-18T11:53:02.854Z,64.96
2022-12-18T11:53:57.891Z,65.16
2022-12-18T11:54:57.911Z,65.43
2022-12-18T11:55:57.860Z,64.83
2022-12-18T11:56:57.867Z,64.43
2022-12-18T11:57:57.823Z,64.50
2022-12-18T11:58:57.827Z,64.50
2022-12-18T11:59:57.835Z,63.97
2022-12-18T12:00:57.895Z,62.67
2022-12-18T12:01:57.921Z,63.27
2022-12-18T12:02:58.006Z,62.87
2022-12-18T12:03:57.841Z,62.77
2022-12-18T12:04:57.762Z,62.57
2022-12-18T12:05:57.803Z,63.00
2022-12-18T12:07:02.948Z,62.67
2022-12-18T12:07:57.785Z,63.00
2022-12-18T12:08:57.804Z,63.77
2022-12-18T12:09:57.712Z,63.07
2022-12-18T12:10:57.748Z,63.17
2022-12-18T12:11:57.762Z,63.77
2022-12-18T12:12:57.819Z,62.84
2022-12-18T12:13:57.730Z,61.38
2022-12-18T12:14:57.683Z,61.87
2022-12-18T12:15:57.781Z,61.87
2022-12-18T12:16:57.690Z,61.55
2022-12-18T12:17:57.651Z,61.94
2022-12-18T12:18:57.712Z,61.44
2022-12-18T12:19:58.140Z,61.85
2022-12-18T12:20:57.614Z,61.94
2022-12-18T12:21:57.577Z,61.74
2022-12-18T12:22:57.755Z,61.94
2022-12-18T12:23:57.592Z,61.55
2022-12-18T12:24:57.563Z,61.35
2022-12-18T12:25:57.605Z,61.74
2022-12-18T12:26:57.557Z,61.41
2022-12-18T12:27:57.563Z,61.11
2022-12-18T12:28:57.526Z,61.32
2022-12-18T12:29:57.586Z,61.91
2022-12-18T12:30:57.494Z,61.82
2022-12-18T12:31:57.543Z,61.49
2022-12-18T12:32:57.548Z,61.29
2022-12-18T12:33:57.419Z,61.19
2022-12-18T12:35:01.023Z,61.88
2022-12-18T12:35:57.435Z,60.59
2022-12-18T12:36:57.451Z,61.09
2022-12-18T12:37:58.227Z,60.99
2022-12-18T12:38:57.457Z,60.89
2022-12-18T12:39:57.366Z,61.16
2022-12-18T12:41:02.833Z,60.76
2022-12-18T12:41:57.436Z,59.77
2022-12-18T12:42:57.554Z,60.56
2022-12-18T12:43:57.385Z,60.36
2022-12-18T12:44:57.463Z,60.03
2022-12-18T12:45:57.362Z,59.74
2022-12-18T12:46:57.306Z,59.94
2022-12-18T12:47:57.311Z,59.64
2022-12-18T12:48:57.377Z,60.43
2022-12-18T12:49:59.231Z,59.94
2022-12-18T12:50:57.309Z,59.81
2022-12-18T12:51:57.315Z,59.01
2022-12-18T12:52:57.449Z,58.98